Airfield :
LOGIN :

Register | Disclaimer

   EN    FR    IT 

 










Legend :    VFR   Marginal VFR   IFR   Intensive IFR   Very Intensive IFR
Visi :
Ceiling :
>= 8 km
>= 3000ft
5 to 8 km
1000 to 3000 ft
1500m to 5 km
500 to 1000 ft
800 to 1500m
200 to 500 ft
< 800m
< 200 ft
Symbols :   Thunderstorms  Fog  Heavy snow  Heavy precipitations  Wind > 20 kt
SIGMETs :     Misc.  Thunderstorms  Icing  Turbulence  Mountain Waves  Volcanic Ashes






- Airport Elevation : 495 ft
- IATA code : BUD


LHBP - Budapest Ferihegy

CURRENT METAR :
  • 220900Z 34006KT 310V010 9999 FEW024TCU SCT074 23/22 Q1011 RESHRA NOSIG

EXPIRED METARs :
  • 220838Z 01009KT 9999 -RA FEW014 SCT036 22/22 Q1010 TEMPO 4000 TSRA SCT040CB BKN070
  • 220800Z 29011KT 9999 -SHRA FEW012 SCT049TCU BKN092 24/21 Q1011 TEMPO 4000 TSRA SCT040CB BKN070
  • 220730Z 30013KT 9999 TS SCT030CB BKN100 24/21 Q1012 TEMPO 4000 TSRA SCT040CB BKN070
  • 220700Z 36005KT 330V060 9999 TS FEW030CB BKN084 23/21 Q1011 TEMPO 4000 TSRA SCT040CB BKN070
  • 220649Z 01004KT 330V060 9999 TS FEW030CB BKN094 23/21 Q1011 TEMPO 4000 TSRA SCT040CB BKN070
  • 220630Z 36003KT 310V060 CAVOK 23/21 Q1011 TEMPO 4000 TSRA SCT040CB BKN070
  • 220600Z 33007KT 9999 -RA FEW039CB BKN064 22/20 Q1011 TEMPO 4000 TSRA SCT040CB BKN070
  • 220530Z VRB04KT 9999 -SHRA FEW053CB BKN097 22/21 Q1011 RETSRA TEMPO 4000 TSRA SCT040CB BKN070
  • 220500Z 26005KT 200V290 9999 -TSRA FEW016 SCT045CB BKN067 23/20 Q1011 TEMPO 4000 TSRA SCT040CB BKN070
  • 220441Z VRB05KT 9999 -SHRA FEW016 SCT045CB BKN080 23/20 Q1011 TEMPO 4000 TSRA SCT040CB BKN070

TAF TAF LHBP
Valid from the 22 at 06:00 until the 23 at 06:00 UTC


220515Z 2206/2306 VRB05KT CAVOK
BECMG 2206/2208 32010KT
TEMPO 2206/2210 36022G32KT 4000 TSRA SHRA SCT025CB BKN040
BECMG 2210/2213 SCT040
TEMPO 2216/2224 VRB15G25KT 4000 TSRA SHRA SCT025CB BKN040
BECMG 2218/2220 06005KT



MET'MAP, your aeronautical weather chart ! - Copyright ORBIFLY December 2007 - Disclaimer

ORBIFLY MET'MAP TEAM :

Programming & Development : Alexandra Zaïnal
Original concept : Baudouin d'Aumeries
Technical & hardware support : Manuel Goepfert
Assistance : Marc-Olivier Méhu




SOURCES & CREDITS :

   NOAA